sensor_id;sensor_type;location;lat;lon;timestamp;P1;durP1;ratioP1;P2;durP2;ratioP2
72117;SDS011;59992;47.490;8.736;2023-04-06T00:02:39;6.00;;;3.50;;
72117;SDS011;59992;47.490;8.736;2023-04-06T00:05:29;5.60;;;2.90;;
72117;SDS011;59992;47.490;8.736;2023-04-06T00:08:19;4.70;;;2.50;;
72117;SDS011;59992;47.490;8.736;2023-04-06T00:11:10;6.00;;;3.20;;
72117;SDS011;59992;47.490;8.736;2023-04-06T00:14:01;8.90;;;4.20;;
72117;SDS011;59992;47.490;8.736;2023-04-06T00:16:51;9.20;;;4.60;;
72117;SDS011;59992;47.490;8.736;2023-04-06T00:19:42;7.80;;;4.20;;
72117;SDS011;59992;47.490;8.736;2023-04-06T00:22:32;10.50;;;5.30;;
72117;SDS011;59992;47.490;8.736;2023-04-06T00:25:23;9.00;;;4.70;;
72117;SDS011;59992;47.490;8.736;2023-04-06T00:28:13;10.20;;;5.40;;
72117;SDS011;59992;47.490;8.736;2023-04-06T00:31:04;11.00;;;5.00;;
72117;SDS011;59992;47.490;8.736;2023-04-06T00:33:54;10.20;;;5.60;;
72117;SDS011;59992;47.490;8.736;2023-04-06T00:36:45;10.50;;;5.00;;
72117;SDS011;59992;47.490;8.736;2023-04-06T00:39:35;10.00;;;5.70;;
72117;SDS011;59992;47.490;8.736;2023-04-06T00:42:25;9.10;;;5.00;;
72117;SDS011;59992;47.490;8.736;2023-04-06T00:45:16;9.50;;;4.90;;
72117;SDS011;59992;47.490;8.736;2023-04-06T00:48:07;12.90;;;4.60;;
72117;SDS011;59992;47.490;8.736;2023-04-06T00:50:58;10.20;;;5.00;;
72117;SDS011;59992;47.490;8.736;2023-04-06T00:53:50;9.60;;;5.30;;
72117;SDS011;59992;47.490;8.736;2023-04-06T00:56:40;8.80;;;4.80;;
72117;SDS011;59992;47.490;8.736;2023-04-06T00:59:32;9.40;;;5.00;;
72117;SDS011;59992;47.490;8.736;2023-04-06T01:02:22;8.60;;;4.90;;
72117;SDS011;59992;47.490;8.736;2023-04-06T01:05:14;11.80;;;5.40;;
72117;SDS011;59992;47.490;8.736;2023-04-06T01:08:04;10.50;;;5.30;;
72117;SDS011;59992;47.490;8.736;2023-04-06T01:10:55;10.20;;;5.40;;
72117;SDS011;59992;47.490;8.736;2023-04-06T01:13:48;10.20;;;5.80;;
72117;SDS011;59992;47.490;8.736;2023-04-06T01:16:38;10.10;;;5.30;;
72117;SDS011;59992;47.490;8.736;2023-04-06T01:19:28;11.00;;;5.70;;
72117;SDS011;59992;47.490;8.736;2023-04-06T01:22:19;13.40;;;5.40;;
72117;SDS011;59992;47.490;8.736;2023-04-06T01:25:10;12.00;;;6.20;;
72117;SDS011;59992;47.490;8.736;2023-04-06T01:28:00;11.00;;;5.40;;
72117;SDS011;59992;47.490;8.736;2023-04-06T01:30:50;12.20;;;5.50;;
72117;SDS011;59992;47.490;8.736;2023-04-06T01:33:41;9.90;;;5.40;;
72117;SDS011;59992;47.490;8.736;2023-04-06T01:36:32;10.00;;;5.10;;
72117;SDS011;59992;47.490;8.736;2023-04-06T01:39:22;10.10;;;5.00;;
72117;SDS011;59992;47.490;8.736;2023-04-06T01:42:13;10.80;;;6.30;;
72117;SDS011;59992;47.490;8.736;2023-04-06T01:45:04;12.10;;;5.50;;
72117;SDS011;59992;47.490;8.736;2023-04-06T01:47:56;11.60;;;6.10;;
72117;SDS011;59992;47.490;8.736;2023-04-06T01:50:46;9.40;;;4.90;;
72117;SDS011;59992;47.490;8.736;2023-04-06T01:53:37;9.70;;;5.20;;
72117;SDS011;59992;47.490;8.736;2023-04-06T01:56:28;10.90;;;5.10;;
72117;SDS011;59992;47.490;8.736;2023-04-06T01:59:18;11.90;;;5.50;;
72117;SDS011;59992;47.490;8.736;2023-04-06T02:02:08;13.00;;;5.00;;
72117;SDS011;59992;47.490;8.736;2023-04-06T02:05:00;10.00;;;4.90;;
72117;SDS011;59992;47.490;8.736;2023-04-06T02:07:50;11.40;;;5.30;;
72117;SDS011;59992;47.490;8.736;2023-04-06T02:10:40;11.10;;;5.10;;
72117;SDS011;59992;47.490;8.736;2023-04-06T02:13:31;12.30;;;4.70;;
72117;SDS011;59992;47.490;8.736;2023-04-06T02:16:21;13.30;;;5.20;;
72117;SDS011;59992;47.490;8.736;2023-04-06T02:19:11;9.80;;;4.90;;
72117;SDS011;59992;47.490;8.736;2023-04-06T02:22:01;10.40;;;5.20;;
72117;SDS011;59992;47.490;8.736;2023-04-06T02:24:52;9.60;;;4.90;;
72117;SDS011;59992;47.490;8.736;2023-04-06T02:27:42;11.30;;;5.20;;
72117;SDS011;59992;47.490;8.736;2023-04-06T02:30:33;9.60;;;4.60;;
72117;SDS011;59992;47.490;8.736;2023-04-06T02:33:23;8.50;;;4.80;;
72117;SDS011;59992;47.490;8.736;2023-04-06T02:36:13;10.70;;;4.80;;
72117;SDS011;59992;47.490;8.736;2023-04-06T02:39:04;10.70;;;4.80;;
72117;SDS011;59992;47.490;8.736;2023-04-06T02:41:54;9.60;;;4.80;;
72117;SDS011;59992;47.490;8.736;2023-04-06T02:44:45;8.50;;;4.40;;
72117;SDS011;59992;47.490;8.736;2023-04-06T02:47:36;11.30;;;5.10;;
72117;SDS011;59992;47.490;8.736;2023-04-06T02:50:26;9.00;;;5.30;;
72117;SDS011;59992;47.490;8.736;2023-04-06T02:53:16;11.00;;;5.10;;
72117;SDS011;59992;47.490;8.736;2023-04-06T02:56:07;10.60;;;4.30;;
72117;SDS011;59992;47.490;8.736;2023-04-06T02:58:57;10.30;;;5.10;;
72117;SDS011;59992;47.490;8.736;2023-04-06T03:01:47;11.00;;;5.20;;
72117;SDS011;59992;47.490;8.736;2023-04-06T03:04:38;11.60;;;5.20;;
72117;SDS011;59992;47.490;8.736;2023-04-06T03:07:28;8.70;;;4.60;;
72117;SDS011;59992;47.490;8.736;2023-04-06T03:10:19;8.80;;;4.40;;
72117;SDS011;59992;47.490;8.736;2023-04-06T03:13:09;11.30;;;5.30;;
72117;SDS011;59992;47.490;8.736;2023-04-06T03:16:00;10.40;;;4.90;;
72117;SDS011;59992;47.490;8.736;2023-04-06T03:18:50;12.00;;;5.50;;
72117;SDS011;59992;47.490;8.736;2023-04-06T03:21:41;10.70;;;4.80;;
72117;SDS011;59992;47.490;8.736;2023-04-06T03:24:32;8.60;;;4.80;;
72117;SDS011;59992;47.490;8.736;2023-04-06T03:27:22;10.30;;;5.10;;
72117;SDS011;59992;47.490;8.736;2023-04-06T03:30:12;9.80;;;4.90;;
72117;SDS011;59992;47.490;8.736;2023-04-06T03:33:04;9.50;;;4.80;;
72117;SDS011;59992;47.490;8.736;2023-04-06T03:35:55;11.20;;;5.10;;
72117;SDS011;59992;47.490;8.736;2023-04-06T03:38:45;10.00;;;4.80;;
72117;SDS011;59992;47.490;8.736;2023-04-06T03:41:35;10.90;;;4.80;;
72117;SDS011;59992;47.490;8.736;2023-04-06T03:44:25;8.30;;;4.30;;
72117;SDS011;59992;47.490;8.736;2023-04-06T03:47:15;10.60;;;4.50;;
72117;SDS011;59992;47.490;8.736;2023-04-06T03:50:06;9.70;;;4.80;;
72117;SDS011;59992;47.490;8.736;2023-04-06T03:52:57;9.70;;;5.00;;
72117;SDS011;59992;47.490;8.736;2023-04-06T03:55:50;11.50;;;5.30;;
72117;SDS011;59992;47.490;8.736;2023-04-06T03:58:40;10.00;;;4.50;;
72117;SDS011;59992;47.490;8.736;2023-04-06T04:01:34;9.60;;;4.90;;
72117;SDS011;59992;47.490;8.736;2023-04-06T04:04:24;9.20;;;5.30;;
72117;SDS011;59992;47.490;8.736;2023-04-06T04:07:14;9.20;;;4.60;;
72117;SDS011;59992;47.490;8.736;2023-04-06T04:10:05;11.10;;;5.60;;
72117;SDS011;59992;47.490;8.736;2023-04-06T04:12:57;9.70;;;4.90;;
72117;SDS011;59992;47.490;8.736;2023-04-06T04:15:47;13.00;;;5.30;;
72117;SDS011;59992;47.490;8.736;2023-04-06T04:18:37;12.10;;;5.30;;
72117;SDS011;59992;47.490;8.736;2023-04-06T04:21:29;10.00;;;5.00;;
72117;SDS011;59992;47.490;8.736;2023-04-06T04:24:19;11.70;;;5.30;;
72117;SDS011;59992;47.490;8.736;2023-04-06T04:27:10;10.40;;;4.90;;
72117;SDS011;59992;47.490;8.736;2023-04-06T04:30:00;11.30;;;5.80;;
72117;SDS011;59992;47.490;8.736;2023-04-06T04:32:51;12.10;;;5.80;;
72117;SDS011;59992;47.490;8.736;2023-04-06T04:35:41;10.00;;;5.40;;
72117;SDS011;59992;47.490;8.736;2023-04-06T04:38:32;9.50;;;4.80;;
72117;SDS011;59992;47.490;8.736;2023-04-06T04:41:22;10.70;;;4.90;;
72117;SDS011;59992;47.490;8.736;2023-04-06T04:44:12;10.20;;;5.50;;
72117;SDS011;59992;47.490;8.736;2023-04-06T04:47:03;10.70;;;4.70;;
72117;SDS011;59992;47.490;8.736;2023-04-06T04:49:56;9.20;;;5.10;;
72117;SDS011;59992;47.490;8.736;2023-04-06T04:52:55;10.20;;;4.80;;
72117;SDS011;59992;47.490;8.736;2023-04-06T04:55:45;8.60;;;4.10;;
72117;SDS011;59992;47.490;8.736;2023-04-06T04:58:36;8.20;;;4.20;;
72117;SDS011;59992;47.490;8.736;2023-04-06T05:01:26;10.70;;;5.20;;
72117;SDS011;59992;47.490;8.736;2023-04-06T05:04:17;11.40;;;5.60;;
72117;SDS011;59992;47.490;8.736;2023-04-06T05:07:08;12.00;;;5.60;;
72117;SDS011;59992;47.490;8.736;2023-04-06T05:09:59;9.60;;;5.00;;
72117;SDS011;59992;47.490;8.736;2023-04-06T05:12:49;11.00;;;5.00;;
72117;SDS011;59992;47.490;8.736;2023-04-06T05:15:40;11.80;;;5.80;;
72117;SDS011;59992;47.490;8.736;2023-04-06T05:18:31;14.90;;;6.90;;
72117;SDS011;59992;47.490;8.736;2023-04-06T05:21:21;12.00;;;5.40;;
72117;SDS011;59992;47.490;8.736;2023-04-06T05:24:12;10.60;;;5.40;;
72117;SDS011;59992;47.490;8.736;2023-04-06T05:27:02;10.50;;;5.20;;
72117;SDS011;59992;47.490;8.736;2023-04-06T05:29:53;9.50;;;5.20;;
72117;SDS011;59992;47.490;8.736;2023-04-06T05:32:44;12.30;;;4.80;;
72117;SDS011;59992;47.490;8.736;2023-04-06T05:35:34;15.40;;;4.70;;
72117;SDS011;59992;47.490;8.736;2023-04-06T05:38:25;11.80;;;5.20;;
72117;SDS011;59992;47.490;8.736;2023-04-06T05:41:15;10.90;;;5.40;;
72117;SDS011;59992;47.490;8.736;2023-04-06T05:44:06;8.50;;;4.80;;
72117;SDS011;59992;47.490;8.736;2023-04-06T05:46:56;8.70;;;4.60;;
72117;SDS011;59992;47.490;8.736;2023-04-06T05:49:46;10.70;;;4.80;;
72117;SDS011;59992;47.490;8.736;2023-04-06T05:52:36;10.50;;;5.00;;
72117;SDS011;59992;47.490;8.736;2023-04-06T05:55:30;9.10;;;4.50;;
72117;SDS011;59992;47.490;8.736;2023-04-06T05:58:21;10.20;;;4.90;;
72117;SDS011;59992;47.490;8.736;2023-04-06T06:01:12;9.70;;;5.30;;
72117;SDS011;59992;47.490;8.736;2023-04-06T06:04:02;9.30;;;4.80;;
72117;SDS011;59992;47.490;8.736;2023-04-06T06:06:53;9.40;;;5.20;;
72117;SDS011;59992;47.490;8.736;2023-04-06T06:09:43;9.80;;;5.40;;
72117;SDS011;59992;47.490;8.736;2023-04-06T06:12:33;10.30;;;5.30;;
72117;SDS011;59992;47.490;8.736;2023-04-06T06:15:23;10.40;;;4.80;;
72117;SDS011;59992;47.490;8.736;2023-04-06T06:18:14;7.80;;;4.60;;
72117;SDS011;59992;47.490;8.736;2023-04-06T06:21:04;10.00;;;4.50;;
72117;SDS011;59992;47.490;8.736;2023-04-06T06:23:55;8.40;;;4.80;;
72117;SDS011;59992;47.490;8.736;2023-04-06T06:26:45;8.90;;;5.10;;
72117;SDS011;59992;47.490;8.736;2023-04-06T06:29:36;10.30;;;5.40;;
72117;SDS011;59992;47.490;8.736;2023-04-06T06:32:27;7.30;;;4.80;;
72117;SDS011;59992;47.490;8.736;2023-04-06T06:35:17;9.10;;;5.30;;
72117;SDS011;59992;47.490;8.736;2023-04-06T06:38:08;7.90;;;4.60;;
72117;SDS011;59992;47.490;8.736;2023-04-06T06:40:59;6.90;;;4.70;;
72117;SDS011;59992;47.490;8.736;2023-04-06T06:43:49;7.50;;;4.80;;
72117;SDS011;59992;47.490;8.736;2023-04-06T06:46:40;8.20;;;4.70;;
72117;SDS011;59992;47.490;8.736;2023-04-06T06:49:30;7.10;;;4.40;;
72117;SDS011;59992;47.490;8.736;2023-04-06T06:52:24;7.00;;;4.60;;
72117;SDS011;59992;47.490;8.736;2023-04-06T06:55:16;8.70;;;4.90;;
72117;SDS011;59992;47.490;8.736;2023-04-06T06:58:07;6.60;;;4.60;;
72117;SDS011;59992;47.490;8.736;2023-04-06T07:00:58;8.10;;;4.70;;
72117;SDS011;59992;47.490;8.736;2023-04-06T07:03:49;8.50;;;5.00;;
72117;SDS011;59992;47.490;8.736;2023-04-06T07:06:40;7.60;;;5.50;;
72117;SDS011;59992;47.490;8.736;2023-04-06T07:09:30;7.40;;;5.30;;
72117;SDS011;59992;47.490;8.736;2023-04-06T07:12:21;10.00;;;5.70;;
72117;SDS011;59992;47.490;8.736;2023-04-06T07:15:12;9.80;;;5.40;;
72117;SDS011;59992;47.490;8.736;2023-04-06T07:18:02;8.90;;;5.60;;
72117;SDS011;59992;47.490;8.736;2023-04-06T07:20:52;8.90;;;6.20;;
72117;SDS011;59992;47.490;8.736;2023-04-06T07:23:43;9.40;;;6.40;;
72117;SDS011;59992;47.490;8.736;2023-04-06T07:26:35;10.20;;;6.00;;
72117;SDS011;59992;47.490;8.736;2023-04-06T07:29:25;8.30;;;6.00;;
72117;SDS011;59992;47.490;8.736;2023-04-06T07:32:16;10.20;;;5.70;;
72117;SDS011;59992;47.490;8.736;2023-04-06T07:35:06;8.40;;;5.90;;
72117;SDS011;59992;47.490;8.736;2023-04-06T07:37:57;8.70;;;6.00;;
72117;SDS011;59992;47.490;8.736;2023-04-06T07:40:47;10.20;;;5.50;;
72117;SDS011;59992;47.490;8.736;2023-04-06T07:43:38;8.50;;;5.70;;
72117;SDS011;59992;47.490;8.736;2023-04-06T07:46:28;8.70;;;5.30;;
72117;SDS011;59992;47.490;8.736;2023-04-06T07:49:19;13.50;;;5.40;;
72117;SDS011;59992;47.490;8.736;2023-04-06T07:52:10;9.80;;;5.50;;
72117;SDS011;59992;47.490;8.736;2023-04-06T07:55:00;10.10;;;5.40;;
72117;SDS011;59992;47.490;8.736;2023-04-06T07:57:51;11.10;;;5.60;;
72117;SDS011;59992;47.490;8.736;2023-04-06T08:00:41;8.30;;;5.70;;
72117;SDS011;59992;47.490;8.736;2023-04-06T08:03:32;11.30;;;5.30;;
72117;SDS011;59992;47.490;8.736;2023-04-06T08:06:23;7.60;;;5.30;;
72117;SDS011;59992;47.490;8.736;2023-04-06T08:09:13;6.90;;;4.70;;
72117;SDS011;59992;47.490;8.736;2023-04-06T08:12:03;7.30;;;5.30;;
72117;SDS011;59992;47.490;8.736;2023-04-06T08:14:54;8.90;;;5.30;;
72117;SDS011;59992;47.490;8.736;2023-04-06T08:17:44;7.60;;;4.80;;
72117;SDS011;59992;47.490;8.736;2023-04-06T08:20:35;7.00;;;4.50;;
72117;SDS011;59992;47.490;8.736;2023-04-06T08:23:25;7.30;;;5.00;;
72117;SDS011;59992;47.490;8.736;2023-04-06T08:26:16;7.20;;;4.90;;
72117;SDS011;59992;47.490;8.736;2023-04-06T08:29:07;7.40;;;4.50;;
72117;SDS011;59992;47.490;8.736;2023-04-06T08:31:59;6.70;;;4.70;;
72117;SDS011;59992;47.490;8.736;2023-04-06T08:34:54;7.40;;;4.90;;
72117;SDS011;59992;47.490;8.736;2023-04-06T08:37:44;9.60;;;5.20;;
72117;SDS011;59992;47.490;8.736;2023-04-06T08:40:37;7.60;;;5.20;;
72117;SDS011;59992;47.490;8.736;2023-04-06T08:43:27;6.90;;;4.20;;
72117;SDS011;59992;47.490;8.736;2023-04-06T08:46:18;7.50;;;4.30;;
72117;SDS011;59992;47.490;8.736;2023-04-06T08:49:09;8.50;;;5.20;;
72117;SDS011;59992;47.490;8.736;2023-04-06T08:52:00;9.30;;;4.60;;
72117;SDS011;59992;47.490;8.736;2023-04-06T08:54:51;6.80;;;4.70;;
72117;SDS011;59992;47.490;8.736;2023-04-06T08:57:41;8.50;;;4.90;;
72117;SDS011;59992;47.490;8.736;2023-04-06T09:00:34;8.00;;;4.80;;
72117;SDS011;59992;47.490;8.736;2023-04-06T09:03:27;9.00;;;4.90;;
72117;SDS011;59992;47.490;8.736;2023-04-06T09:06:19;9.90;;;4.90;;
72117;SDS011;59992;47.490;8.736;2023-04-06T09:09:10;7.50;;;4.60;;
72117;SDS011;59992;47.490;8.736;2023-04-06T09:12:01;7.80;;;4.70;;
72117;SDS011;59992;47.490;8.736;2023-04-06T09:14:53;8.70;;;5.10;;
72117;SDS011;59992;47.490;8.736;2023-04-06T09:17:44;8.50;;;4.50;;
72117;SDS011;59992;47.490;8.736;2023-04-06T09:20:35;8.10;;;4.70;;
72117;SDS011;59992;47.490;8.736;2023-04-06T09:23:25;7.70;;;4.50;;
72117;SDS011;59992;47.490;8.736;2023-04-06T09:26:16;6.80;;;4.00;;
72117;SDS011;59992;47.490;8.736;2023-04-06T09:29:07;7.30;;;4.30;;
72117;SDS011;59992;47.490;8.736;2023-04-06T09:32:03;6.30;;;4.00;;
72117;SDS011;59992;47.490;8.736;2023-04-06T09:34:54;7.20;;;3.80;;
72117;SDS011;59992;47.490;8.736;2023-04-06T09:37:56;8.10;;;4.50;;
72117;SDS011;59992;47.490;8.736;2023-04-06T09:40:50;9.00;;;4.70;;
72117;SDS011;59992;47.490;8.736;2023-04-06T09:43:40;8.40;;;4.60;;
72117;SDS011;59992;47.490;8.736;2023-04-06T09:46:31;9.90;;;4.70;;
72117;SDS011;59992;47.490;8.736;2023-04-06T09:49:23;7.70;;;4.10;;
72117;SDS011;59992;47.490;8.736;2023-04-06T09:52:15;9.70;;;4.20;;
72117;SDS011;59992;47.490;8.736;2023-04-06T09:55:08;9.80;;;5.40;;
72117;SDS011;59992;47.490;8.736;2023-04-06T09:58:01;7.20;;;4.20;;
72117;SDS011;59992;47.490;8.736;2023-04-06T10:00:56;7.60;;;3.40;;
72117;SDS011;59992;47.490;8.736;2023-04-06T10:04:04;7.40;;;4.00;;
72117;SDS011;59992;47.490;8.736;2023-04-06T10:07:06;7.70;;;4.60;;
72117;SDS011;59992;47.490;8.736;2023-04-06T10:09:59;7.60;;;3.80;;
72117;SDS011;59992;47.490;8.736;2023-04-06T10:12:52;6.50;;;3.50;;
72117;SDS011;59992;47.490;8.736;2023-04-06T10:15:44;8.50;;;3.50;;
72117;SDS011;59992;47.490;8.736;2023-04-06T10:18:35;7.60;;;4.20;;
72117;SDS011;59992;47.490;8.736;2023-04-06T10:21:28;8.00;;;4.20;;
72117;SDS011;59992;47.490;8.736;2023-04-06T10:24:21;9.40;;;5.30;;
72117;SDS011;59992;47.490;8.736;2023-04-06T10:27:11;8.30;;;4.70;;
72117;SDS011;59992;47.490;8.736;2023-04-06T10:30:02;7.40;;;3.90;;
72117;SDS011;59992;47.490;8.736;2023-04-06T10:32:55;8.90;;;4.50;;
72117;SDS011;59992;47.490;8.736;2023-04-06T10:35:45;9.90;;;4.60;;
72117;SDS011;59992;47.490;8.736;2023-04-06T10:38:36;9.30;;;4.80;;
72117;SDS011;59992;47.490;8.736;2023-04-06T10:41:33;7.50;;;3.60;;
72117;SDS011;59992;47.490;8.736;2023-04-06T10:44:24;7.40;;;4.10;;
72117;SDS011;59992;47.490;8.736;2023-04-06T10:47:18;7.20;;;3.90;;
72117;SDS011;59992;47.490;8.736;2023-04-06T10:50:08;7.40;;;3.90;;
72117;SDS011;59992;47.490;8.736;2023-04-06T10:53:02;8.20;;;3.70;;
72117;SDS011;59992;47.490;8.736;2023-04-06T10:55:54;6.40;;;3.10;;
72117;SDS011;59992;47.490;8.736;2023-04-06T10:58:45;7.00;;;3.70;;
72117;SDS011;59992;47.490;8.736;2023-04-06T11:01:36;5.70;;;3.10;;
72117;SDS011;59992;47.490;8.736;2023-04-06T11:04:32;6.10;;;3.50;;
72117;SDS011;59992;47.490;8.736;2023-04-06T11:07:26;7.10;;;3.50;;
72117;SDS011;59992;47.490;8.736;2023-04-06T11:10:21;6.60;;;3.50;;
72117;SDS011;59992;47.490;8.736;2023-04-06T11:13:12;7.80;;;3.90;;
72117;SDS011;59992;47.490;8.736;2023-04-06T11:16:02;5.80;;;3.20;;
72117;SDS011;59992;47.490;8.736;2023-04-06T11:18:54;5.40;;;3.00;;
72117;SDS011;59992;47.490;8.736;2023-04-06T11:21:46;7.50;;;3.80;;
72117;SDS011;59992;47.490;8.736;2023-04-06T11:24:37;6.20;;;2.90;;
72117;SDS011;59992;47.490;8.736;2023-04-06T11:27:27;5.80;;;3.00;;
72117;SDS011;59992;47.490;8.736;2023-04-06T11:30:19;7.20;;;2.90;;
72117;SDS011;59992;47.490;8.736;2023-04-06T11:33:10;5.50;;;2.80;;
72117;SDS011;59992;47.490;8.736;2023-04-06T11:36:08;4.80;;;2.60;;
72117;SDS011;59992;47.490;8.736;2023-04-06T11:38:59;5.40;;;2.90;;
72117;SDS011;59992;47.490;8.736;2023-04-06T11:41:51;4.90;;;3.10;;
72117;SDS011;59992;47.490;8.736;2023-04-06T11:44:46;5.10;;;2.90;;
72117;SDS011;59992;47.490;8.736;2023-04-06T11:47:38;5.30;;;2.50;;
72117;SDS011;59992;47.490;8.736;2023-04-06T11:50:32;4.60;;;2.60;;
72117;SDS011;59992;47.490;8.736;2023-04-06T11:53:23;5.80;;;3.10;;
72117;SDS011;59992;47.490;8.736;2023-04-06T11:56:23;7.50;;;4.00;;
72117;SDS011;59992;47.490;8.736;2023-04-06T11:59:14;8.00;;;3.00;;
72117;SDS011;59992;47.490;8.736;2023-04-06T12:02:05;6.60;;;3.60;;
72117;SDS011;59992;47.490;8.736;2023-04-06T12:04:55;6.60;;;3.30;;
72117;SDS011;59992;47.490;8.736;2023-04-06T12:07:45;5.90;;;3.10;;
72117;SDS011;59992;47.490;8.736;2023-04-06T12:10:36;6.70;;;3.70;;
72117;SDS011;59992;47.490;8.736;2023-04-06T12:13:26;6.10;;;3.10;;
72117;SDS011;59992;47.490;8.736;2023-04-06T12:16:17;5.80;;;2.80;;
72117;SDS011;59992;47.490;8.736;2023-04-06T12:19:07;6.90;;;3.20;;
72117;SDS011;59992;47.490;8.736;2023-04-06T12:21:57;6.70;;;3.70;;
72117;SDS011;59992;47.490;8.736;2023-04-06T12:24:48;5.60;;;3.00;;
72117;SDS011;59992;47.490;8.736;2023-04-06T12:27:38;6.00;;;3.60;;
72117;SDS011;59992;47.490;8.736;2023-04-06T12:30:29;7.00;;;3.60;;
72117;SDS011;59992;47.490;8.736;2023-04-06T12:33:19;6.30;;;2.90;;
72117;SDS011;59992;47.490;8.736;2023-04-06T12:36:12;6.70;;;3.60;;
72117;SDS011;59992;47.490;8.736;2023-04-06T12:39:06;6.60;;;3.40;;
72117;SDS011;59992;47.490;8.736;2023-04-06T12:41:56;6.10;;;3.40;;
72117;SDS011;59992;47.490;8.736;2023-04-06T12:44:46;8.90;;;3.90;;
72117;SDS011;59992;47.490;8.736;2023-04-06T12:47:37;6.20;;;3.30;;
72117;SDS011;59992;47.490;8.736;2023-04-06T12:50:28;5.60;;;3.10;;
72117;SDS011;59992;47.490;8.736;2023-04-06T12:53:18;6.40;;;3.00;;
72117;SDS011;59992;47.490;8.736;2023-04-06T12:56:13;6.90;;;3.90;;
72117;SDS011;59992;47.490;8.736;2023-04-06T12:59:05;6.70;;;3.30;;
72117;SDS011;59992;47.490;8.736;2023-04-06T13:01:55;5.60;;;3.20;;
72117;SDS011;59992;47.490;8.736;2023-04-06T13:04:46;5.70;;;3.30;;
72117;SDS011;59992;47.490;8.736;2023-04-06T13:07:36;6.00;;;3.30;;
72117;SDS011;59992;47.490;8.736;2023-04-06T13:10:27;4.90;;;2.70;;
72117;SDS011;59992;47.490;8.736;2023-04-06T13:13:21;6.90;;;3.20;;
72117;SDS011;59992;47.490;8.736;2023-04-06T13:16:12;6.40;;;3.40;;
72117;SDS011;59992;47.490;8.736;2023-04-06T13:19:04;6.80;;;3.70;;
72117;SDS011;59992;47.490;8.736;2023-04-06T13:21:54;5.40;;;3.10;;
72117;SDS011;59992;47.490;8.736;2023-04-06T13:24:45;5.70;;;3.30;;
72117;SDS011;59992;47.490;8.736;2023-04-06T13:27:35;6.10;;;2.90;;
72117;SDS011;59992;47.490;8.736;2023-04-06T13:30:26;6.00;;;3.30;;
72117;SDS011;59992;47.490;8.736;2023-04-06T13:33:17;6.30;;;3.70;;
72117;SDS011;59992;47.490;8.736;2023-04-06T13:36:08;6.50;;;3.20;;
72117;SDS011;59992;47.490;8.736;2023-04-06T13:38:58;6.90;;;3.90;;
72117;SDS011;59992;47.490;8.736;2023-04-06T13:41:49;6.50;;;3.50;;
72117;SDS011;59992;47.490;8.736;2023-04-06T13:44:42;5.10;;;2.70;;
72117;SDS011;59992;47.490;8.736;2023-04-06T13:47:34;5.90;;;3.20;;
72117;SDS011;59992;47.490;8.736;2023-04-06T13:50:26;5.30;;;3.10;;
72117;SDS011;59992;47.490;8.736;2023-04-06T13:53:17;5.40;;;2.50;;
72117;SDS011;59992;47.490;8.736;2023-04-06T13:56:07;6.20;;;3.20;;
72117;SDS011;59992;47.490;8.736;2023-04-06T13:58:58;4.20;;;2.70;;
72117;SDS011;59992;47.490;8.736;2023-04-06T14:01:48;5.10;;;2.80;;
72117;SDS011;59992;47.490;8.736;2023-04-06T14:04:39;8.30;;;3.40;;
72117;SDS011;59992;47.490;8.736;2023-04-06T14:07:29;4.90;;;3.00;;
72117;SDS011;59992;47.490;8.736;2023-04-06T14:10:19;5.40;;;3.30;;
72117;SDS011;59992;47.490;8.736;2023-04-06T14:13:13;6.60;;;3.50;;
72117;SDS011;59992;47.490;8.736;2023-04-06T14:16:05;6.40;;;3.70;;
72117;SDS011;59992;47.490;8.736;2023-04-06T14:18:56;7.50;;;3.60;;
72117;SDS011;59992;47.490;8.736;2023-04-06T14:21:46;6.20;;;3.60;;
72117;SDS011;59992;47.490;8.736;2023-04-06T14:24:36;6.50;;;3.90;;
72117;SDS011;59992;47.490;8.736;2023-04-06T14:27:27;5.40;;;3.00;;
72117;SDS011;59992;47.490;8.736;2023-04-06T14:30:18;4.80;;;3.00;;
72117;SDS011;59992;47.490;8.736;2023-04-06T14:33:10;6.90;;;2.90;;
72117;SDS011;59992;47.490;8.736;2023-04-06T14:36:03;7.00;;;2.80;;
72117;SDS011;59992;47.490;8.736;2023-04-06T14:38:54;9.90;;;2.80;;
72117;SDS011;59992;47.490;8.736;2023-04-06T14:41:45;6.80;;;2.90;;
72117;SDS011;59992;47.490;8.736;2023-04-06T14:44:36;7.70;;;3.00;;
72117;SDS011;59992;47.490;8.736;2023-04-06T14:47:30;5.80;;;3.30;;
72117;SDS011;59992;47.490;8.736;2023-04-06T14:50:20;5.80;;;3.40;;
72117;SDS011;59992;47.490;8.736;2023-04-06T14:53:10;5.40;;;2.90;;
72117;SDS011;59992;47.490;8.736;2023-04-06T14:56:01;8.30;;;3.70;;
72117;SDS011;59992;47.490;8.736;2023-04-06T14:58:51;6.50;;;3.80;;
72117;SDS011;59992;47.490;8.736;2023-04-06T15:01:43;6.10;;;3.50;;
72117;SDS011;59992;47.490;8.736;2023-04-06T15:04:34;7.40;;;2.90;;
72117;SDS011;59992;47.490;8.736;2023-04-06T15:07:25;5.80;;;2.90;;
72117;SDS011;59992;47.490;8.736;2023-04-06T15:10:15;6.30;;;2.70;;
72117;SDS011;59992;47.490;8.736;2023-04-06T15:13:05;3.90;;;2.30;;
72117;SDS011;59992;47.490;8.736;2023-04-06T15:15:56;5.80;;;2.30;;
72117;SDS011;59992;47.490;8.736;2023-04-06T15:18:46;4.10;;;2.00;;
72117;SDS011;59992;47.490;8.736;2023-04-06T15:21:37;5.10;;;2.20;;
72117;SDS011;59992;47.490;8.736;2023-04-06T15:24:28;4.70;;;2.60;;
72117;SDS011;59992;47.490;8.736;2023-04-06T15:27:19;5.10;;;2.90;;
72117;SDS011;59992;47.490;8.736;2023-04-06T15:30:10;6.00;;;2.80;;
72117;SDS011;59992;47.490;8.736;2023-04-06T15:33:00;6.10;;;2.70;;
72117;SDS011;59992;47.490;8.736;2023-04-06T15:35:52;5.10;;;2.40;;
72117;SDS011;59992;47.490;8.736;2023-04-06T15:38:43;5.80;;;3.10;;
72117;SDS011;59992;47.490;8.736;2023-04-06T15:41:33;7.20;;;3.00;;
72117;SDS011;59992;47.490;8.736;2023-04-06T15:44:23;6.90;;;3.10;;
72117;SDS011;59992;47.490;8.736;2023-04-06T15:47:14;6.10;;;3.30;;
72117;SDS011;59992;47.490;8.736;2023-04-06T15:50:05;5.70;;;2.80;;
72117;SDS011;59992;47.490;8.736;2023-04-06T15:52:56;7.10;;;3.20;;
72117;SDS011;59992;47.490;8.736;2023-04-06T15:55:47;5.70;;;3.00;;
72117;SDS011;59992;47.490;8.736;2023-04-06T15:58:37;6.80;;;3.70;;
72117;SDS011;59992;47.490;8.736;2023-04-06T16:01:27;8.10;;;3.60;;
72117;SDS011;59992;47.490;8.736;2023-04-06T16:04:18;11.00;;;3.20;;
72117;SDS011;59992;47.490;8.736;2023-04-06T16:07:09;6.90;;;3.30;;
72117;SDS011;59992;47.490;8.736;2023-04-06T16:10:00;7.30;;;3.70;;
72117;SDS011;59992;47.490;8.736;2023-04-06T16:12:51;6.50;;;3.50;;
72117;SDS011;59992;47.490;8.736;2023-04-06T16:15:41;8.40;;;3.00;;
72117;SDS011;59992;47.490;8.736;2023-04-06T16:18:32;4.80;;;2.80;;
72117;SDS011;59992;47.490;8.736;2023-04-06T16:21:22;6.30;;;3.50;;
72117;SDS011;59992;47.490;8.736;2023-04-06T16:24:14;7.80;;;3.50;;
72117;SDS011;59992;47.490;8.736;2023-04-06T16:27:04;10.90;;;4.40;;
72117;SDS011;59992;47.490;8.736;2023-04-06T16:29:55;7.20;;;3.80;;
72117;SDS011;59992;47.490;8.736;2023-04-06T16:32:46;5.90;;;3.20;;
72117;SDS011;59992;47.490;8.736;2023-04-06T16:35:42;7.10;;;3.40;;
72117;SDS011;59992;47.490;8.736;2023-04-06T16:38:33;7.40;;;3.60;;
72117;SDS011;59992;47.490;8.736;2023-04-06T16:41:23;6.90;;;3.60;;
72117;SDS011;59992;47.490;8.736;2023-04-06T16:44:15;5.70;;;3.40;;
72117;SDS011;59992;47.490;8.736;2023-04-06T16:47:05;6.40;;;3.10;;
72117;SDS011;59992;47.490;8.736;2023-04-06T16:49:56;6.60;;;2.90;;
72117;SDS011;59992;47.490;8.736;2023-04-06T16:52:46;6.00;;;3.20;;
72117;SDS011;59992;47.490;8.736;2023-04-06T16:55:38;5.90;;;3.20;;
72117;SDS011;59992;47.490;8.736;2023-04-06T16:58:30;6.50;;;3.10;;
72117;SDS011;59992;47.490;8.736;2023-04-06T17:01:22;7.70;;;3.00;;
72117;SDS011;59992;47.490;8.736;2023-04-06T17:04:13;4.90;;;2.70;;
72117;SDS011;59992;47.490;8.736;2023-04-06T17:07:04;5.70;;;2.60;;